Time;durP1;ratioP1;P1;durP2;ratioP2;P2;SDS_P1;SDS_P2;PMS_P1;PMS_P2;Temp;Humidity;BMP_temperature;BMP_pressure;BME280_temperature;BME280_humidity;BME280_pressure;Samples;Min_cycle;Max_cycle;Signal;HPM_P1;HPM_P2
2021/07/25 00:01:50;;;;;;;;;;;18.40;99.90;;;;;;5094292;28;19908;-76
2021/07/25 00:04:15;;;;;;;;;;;18.30;99.90;;;;;;5094481;28;19914;-76
2021/07/25 00:06:41;;;;;;;;;;;18.30;99.90;;;;;;5095373;28;19912;-75
2021/07/25 00:09:06;;;;;;;;;;;18.30;99.90;;;;;;5092716;28;20452;-76
2021/07/25 00:11:32;;;;;;;;;;;18.20;99.90;;;;;;5093024;28;20002;-75
2021/07/25 00:14:02;;;;;;;;;;;18.30;99.90;;;;;;5094123;28;19923;-75
2021/07/25 00:16:28;;;;;;;;;;;18.30;99.90;;;;;;5095454;28;19915;-76
2021/07/25 00:18:53;;;;;;;;;;;18.30;99.90;;;;;;5097037;28;19912;-74
2021/07/25 00:21:19;;;;;;;;;;;18.40;99.90;;;;;;5097600;28;19908;-76
2021/07/25 00:23:47;;;;;;;;;;;18.40;99.90;;;;;;5096397;28;19958;-76
2021/07/25 00:26:14;;;;;;;;;;;18.40;99.90;;;;;;5099038;28;19926;-76
2021/07/25 00:28:39;;;;;;;;;;;18.40;99.90;;;;;;5098579;28;19908;-76
2021/07/25 00:31:08;;;;;;;;;;;18.30;99.90;;;;;;5095817;28;19972;-75
2021/07/25 00:33:37;;;;;;;;;;;18.30;99.90;;;;;;5097992;28;20320;-75
2021/07/25 00:36:04;;;;;;;;;;;18.20;99.90;;;;;;5098858;28;20007;-76
2021/07/25 00:38:30;;;;;;;;;;;18.20;99.90;;;;;;5098233;28;20034;-76
2021/07/25 00:40:57;;;;;;;;;;;18.20;99.90;;;;;;5100019;28;19908;-74
2021/07/25 00:43:29;;;;;;;;;;;18.20;99.90;;;;;;5101604;28;20229;-76
2021/07/25 00:45:55;;;;;;;;;;;18.20;99.90;;;;;;5095741;28;19920;-74
2021/07/25 00:48:21;;;;;;;;;;;18.10;99.90;;;;;;5096399;28;19923;-73
2021/07/25 00:50:47;;;;;;;;;;;18.10;99.90;;;;;;5094258;28;19991;-76
2021/07/25 00:53:12;;;;;;;;;;;18.10;99.90;;;;;;5093860;28;19962;-76
2021/07/25 00:55:40;;;;;;;;;;;18.20;99.90;;;;;;5093996;28;19912;-76
2021/07/25 00:58:05;;;;;;;;;;;18.10;99.90;;;;;;5092248;28;19908;-76
2021/07/25 01:00:31;;;;;;;;;;;18.20;99.90;;;;;;5091918;28;20038;-76
2021/07/25 01:03:02;;;;;;;;;;;18.20;99.90;;;;;;5092145;28;19915;-76
2021/07/25 01:05:43;;;;;;;;;;;18.10;99.90;;;;;;5095378;28;19908;-76
2021/07/25 01:08:27;;;;;;;;;;;18.00;99.90;;;;;;5093676;28;19908;-75
2021/07/25 01:10:53;;;;;;;;;;;18.00;99.90;;;;;;5093317;28;19908;-76
2021/07/25 01:13:22;;;;;;;;;;;18.00;99.90;;;;;;5091308;28;20399;-74
2021/07/25 01:15:48;;;;;;;;;;;18.00;99.90;;;;;;5093710;28;19993;-76
2021/07/25 01:18:13;;;;;;;;;;;18.00;99.90;;;;;;5093805;28;20380;-76
2021/07/25 01:20:39;;;;;;;;;;;18.00;99.90;;;;;;5096554;28;19915;-76
2021/07/25 01:23:04;;;;;;;;;;;18.10;99.90;;;;;;5098790;28;19938;-75
2021/07/25 01:25:30;;;;;;;;;;;18.10;99.90;;;;;;5097793;28;19912;-76
2021/07/25 01:28:04;;;;;;;;;;;18.10;99.90;;;;;;5097669;28;19915;-76
2021/07/25 01:30:30;;;;;;;;;;;18.20;99.90;;;;;;5098409;28;19915;-75
2021/07/25 01:33:01;;;;;;;;;;;18.10;99.90;;;;;;5100813;28;19912;-76
2021/07/25 01:35:27;;;;;;;;;;;18.10;99.90;;;;;;5097574;28;20003;-76
2021/07/25 01:37:53;;;;;;;;;;;18.10;99.90;;;;;;5093800;28;20357;-76
2021/07/25 01:40:22;;;;;;;;;;;18.00;99.90;;;;;;5095145;28;19908;-76
2021/07/25 01:42:47;;;;;;;;;;;18.00;99.90;;;;;;5082161;28;19909;-73
2021/07/25 01:45:13;;;;;;;;;;;18.00;99.90;;;;;;5073848;28;19916;-74
2021/07/25 01:47:39;;;;;;;;;;;18.10;99.90;;;;;;5070236;28;19944;-76
2021/07/25 01:50:05;;;;;;;;;;;18.10;99.90;;;;;;5072187;28;20430;-76
2021/07/25 01:52:31;;;;;;;;;;;18.20;99.90;;;;;;5071507;28;19955;-76
2021/07/25 01:54:56;;;;;;;;;;;18.30;99.90;;;;;;5075125;28;19934;-76
2021/07/25 01:57:22;;;;;;;;;;;18.30;99.90;;;;;;5072455;28;20011;-74
2021/07/25 01:59:47;;;;;;;;;;;18.30;99.90;;;;;;5076497;28;19916;-76
2021/07/25 02:02:13;;;;;;;;;;;18.30;99.90;;;;;;5093947;28;19916;-76
2021/07/25 02:04:38;;;;;;;;;;;18.20;99.90;;;;;;5099510;28;19908;-76
2021/07/25 02:07:04;;;;;;;;;;;18.20;99.90;;;;;;5102472;28;19979;-74
2021/07/25 02:09:32;;;;;;;;;;;18.20;99.90;;;;;;5102831;28;19908;-74
2021/07/25 02:11:57;;;;;;;;;;;18.10;99.90;;;;;;5101896;28;19913;-77
2021/07/25 02:14:23;;;;;;;;;;;18.10;99.90;;;;;;5104504;28;20019;-76
2021/07/25 02:16:48;;;;;;;;;;;18.10;99.90;;;;;;5103467;28;19930;-75
2021/07/25 02:19:14;;;;;;;;;;;18.10;99.90;;;;;;5105503;28;19935;-75
2021/07/25 02:21:39;;;;;;;;;;;18.10;99.90;;;;;;5105061;28;19909;-76
2021/07/25 02:24:05;;;;;;;;;;;18.10;99.90;;;;;;5101188;28;19991;-76
2021/07/25 02:26:30;;;;;;;;;;;18.10;99.90;;;;;;5098779;28;20002;-74
2021/07/25 02:28:56;;;;;;;;;;;18.10;99.90;;;;;;5100416;28;19916;-76
2021/07/25 02:31:21;;;;;;;;;;;18.00;99.90;;;;;;5101070;28;19958;-76
2021/07/25 02:33:47;;;;;;;;;;;18.00;99.90;;;;;;5100815;28;19950;-76
2021/07/25 02:36:12;;;;;;;;;;;18.00;99.90;;;;;;5101955;28;19944;-74
2021/07/25 02:38:38;;;;;;;;;;;18.10;99.90;;;;;;5097141;28;19915;-76
2021/07/25 02:41:03;;;;;;;;;;;18.10;99.90;;;;;;5097059;28;19934;-75
2021/07/25 02:43:29;;;;;;;;;;;18.10;99.90;;;;;;5098181;28;19935;-76
2021/07/25 02:45:54;;;;;;;;;;;18.10;99.90;;;;;;5094181;28;19916;-74
2021/07/25 02:48:20;;;;;;;;;;;18.00;99.90;;;;;;5094634;28;19908;-76
2021/07/25 02:50:45;;;;;;;;;;;18.00;99.90;;;;;;5096672;28;20008;-76
2021/07/25 02:53:11;;;;;;;;;;;18.00;99.90;;;;;;5093909;28;19912;-75
2021/07/25 02:55:36;;;;;;;;;;;18.00;99.90;;;;;;5095616;28;20354;-77
2021/07/25 02:58:02;;;;;;;;;;;18.10;99.90;;;;;;5094051;28;19912;-76
2021/07/25 03:00:27;;;;;;;;;;;18.10;99.90;;;;;;5093950;28;20488;-76
2021/07/25 03:02:56;;;;;;;;;;;18.10;99.90;;;;;;5096907;28;19908;-76
2021/07/25 03:05:22;;;;;;;;;;;18.10;99.90;;;;;;5096450;28;19912;-76
2021/07/25 03:07:48;;;;;;;;;;;18.10;99.90;;;;;;5098538;28;19908;-76
2021/07/25 03:10:13;;;;;;;;;;;18.10;99.90;;;;;;5101623;28;19932;-75
2021/07/25 03:12:39;;;;;;;;;;;18.10;99.90;;;;;;5098835;28;19908;-76
2021/07/25 03:15:05;;;;;;;;;;;18.10;99.90;;;;;;5098279;28;20366;-76
2021/07/25 03:17:30;;;;;;;;;;;18.10;99.90;;;;;;5098286;28;19912;-76
2021/07/25 03:22:24;;;;;;;;;;;18.10;99.90;;;;;;5071757;28;19924;-75
2021/07/25 03:24:50;;;;;;;;;;;18.10;99.90;;;;;;5073012;28;19918;-75
2021/07/25 03:27:15;;;;;;;;;;;18.10;99.90;;;;;;5072554;28;19909;-75
2021/07/25 03:29:40;;;;;;;;;;;18.10;99.90;;;;;;5054553;28;20018;-75
2021/07/25 03:32:06;;;;;;;;;;;18.00;99.90;;;;;;5052900;28;19908;-75
2021/07/25 03:34:33;;;;;;;;;;;18.10;99.90;;;;;;5053031;28;19975;-75
2021/07/25 03:37:02;;;;;;;;;;;18.10;99.90;;;;;;5052514;28;19948;-75
2021/07/25 03:39:28;;;;;;;;;;;18.00;99.90;;;;;;5052990;28;19963;-75
2021/07/25 03:41:53;;;;;;;;;;;18.00;99.90;;;;;;5034876;28;19909;-75
2021/07/25 03:44:20;;;;;;;;;;;18.00;99.90;;;;;;5052743;28;20258;-75
2021/07/25 03:46:45;;;;;;;;;;;18.00;99.90;;;;;;5034340;28;19909;-75
2021/07/25 03:49:11;;;;;;;;;;;18.00;99.90;;;;;;5052705;28;19931;-75
2021/07/25 03:51:37;;;;;;;;;;;17.90;99.90;;;;;;5052476;28;20308;-75
2021/07/25 03:54:03;;;;;;;;;;;17.90;99.90;;;;;;5052672;28;19959;-75
2021/07/25 03:56:29;;;;;;;;;;;17.90;99.90;;;;;;5052016;28;19908;-75
2021/07/25 03:58:54;;;;;;;;;;;17.80;99.90;;;;;;5052534;28;19999;-75
2021/07/25 04:01:20;;;;;;;;;;;17.80;99.90;;;;;;5052889;28;19909;-75
2021/07/25 04:03:46;;;;;;;;;;;17.80;99.90;;;;;;5052677;28;20246;-75
2021/07/25 04:06:12;;;;;;;;;;;17.70;99.90;;;;;;5051937;28;19909;-75
2021/07/25 04:08:37;;;;;;;;;;;17.70;99.90;;;;;;5052486;28;20365;-75
2021/07/25 04:11:03;;;;;;;;;;;17.60;99.90;;;;;;5052175;28;19913;-75
2021/07/25 04:13:29;;;;;;;;;;;17.60;99.90;;;;;;5052053;28;19916;-75
2021/07/25 04:15:54;;;;;;;;;;;17.50;99.90;;;;;;5052259;28;19909;-75
2021/07/25 04:18:20;;;;;;;;;;;17.40;99.90;;;;;;5051711;28;19909;-75
2021/07/25 04:20:45;;;;;;;;;;;17.40;99.90;;;;;;5052096;28;19924;-75
2021/07/25 04:23:11;;;;;;;;;;;17.40;99.90;;;;;;5051928;28;19908;-75
2021/07/25 04:25:36;;;;;;;;;;;17.40;99.90;;;;;;5052086;28;19913;-74
2021/07/25 04:28:03;;;;;;;;;;;17.30;99.90;;;;;;5050928;28;19916;-75
2021/07/25 04:30:29;;;;;;;;;;;17.30;99.90;;;;;;5052445;28;20362;-75
2021/07/25 04:32:55;;;;;;;;;;;17.30;99.90;;;;;;5051370;28;19915;-75
2021/07/25 04:35:21;;;;;;;;;;;17.30;99.90;;;;;;5051880;28;19999;-75
2021/07/25 04:37:52;;;;;;;;;;;17.30;99.90;;;;;;5051201;28;19909;-75
2021/07/25 04:40:18;;;;;;;;;;;17.10;99.90;;;;;;5051793;28;19909;-75
2021/07/25 04:42:45;;;;;;;;;;;17.10;99.90;;;;;;5033637;28;19915;-75
2021/07/25 04:45:14;;;;;;;;;;;17.10;99.90;;;;;;5051784;28;20281;-75
2021/07/25 04:47:46;;;;;;;;;;;17.20;99.90;;;;;;5032962;28;19955;-75
2021/07/25 04:50:14;;;;;;;;;;;17.20;99.90;;;;;;5051778;28;20144;-75
2021/07/25 04:52:41;;;;;;;;;;;17.30;99.90;;;;;;5051689;28;19962;-75
2021/07/25 04:55:10;;;;;;;;;;;17.20;99.90;;;;;;5051169;28;19920;-75
2021/07/25 04:57:40;;;;;;;;;;;17.20;99.90;;;;;;5050767;28;19925;-75
2021/07/25 05:00:06;;;;;;;;;;;17.20;99.90;;;;;;5052203;28;20356;-75
2021/07/25 05:02:33;;;;;;;;;;;17.20;99.90;;;;;;5051252;28;19916;-75
2021/07/25 05:05:00;;;;;;;;;;;17.30;99.90;;;;;;5051267;28;19912;-75
2021/07/25 05:07:26;;;;;;;;;;;17.30;99.90;;;;;;5050907;28;20058;-75
2021/07/25 05:09:52;;;;;;;;;;;17.50;99.90;;;;;;5051061;28;19971;-75
2021/07/25 05:12:32;;;;;;;;;;;17.60;99.90;;;;;;5033547;28;19916;-75
2021/07/25 05:15:03;;;;;;;;;;;17.70;99.90;;;;;;5051031;28;19913;-75
2021/07/25 05:17:39;;;;;;;;;;;17.70;99.90;;;;;;5050941;28;20317;-75
2021/07/25 05:20:06;;;;;;;;;;;17.80;99.90;;;;;;5050786;28;20383;-75
2021/07/25 05:22:41;;;;;;;;;;;17.90;99.90;;;;;;5051223;28;19913;-75
2021/07/25 05:25:06;;;;;;;;;;;17.90;99.90;;;;;;5051045;28;19909;-75
2021/07/25 05:27:38;;;;;;;;;;;18.00;99.90;;;;;;5050672;28;20276;-74
2021/07/25 05:30:04;;;;;;;;;;;18.00;99.90;;;;;;5052037;28;19908;-75
2021/07/25 05:32:30;;;;;;;;;;;18.10;99.90;;;;;;5050910;28;19915;-75
2021/07/25 05:34:55;;;;;;;;;;;18.10;99.90;;;;;;5050961;28;20300;-75
2021/07/25 05:37:20;;;;;;;;;;;18.20;99.90;;;;;;5050809;28;19916;-75
2021/07/25 05:39:46;;;;;;;;;;;18.30;99.90;;;;;;5051927;28;20163;-75
2021/07/25 05:42:11;;;;;;;;;;;18.40;99.90;;;;;;5055352;28;19909;-75
2021/07/25 05:44:37;;;;;;;;;;;18.50;99.90;;;;;;5054882;28;19923;-75
2021/07/25 05:47:02;;;;;;;;;;;18.50;99.90;;;;;;5054807;28;19956;-75
2021/07/25 05:49:28;;;;;;;;;;;18.70;99.90;;;;;;5055296;28;19912;-75
2021/07/25 05:51:53;;;;;;;;;;;18.90;99.90;;;;;;5054870;28;20284;-75
2021/07/25 05:54:19;;;;;;;;;;;19.00;99.90;;;;;;5055035;28;19920;-75
2021/07/25 05:56:44;;;;;;;;;;;19.10;99.90;;;;;;5054378;28;20249;-75
2021/07/25 05:59:11;;;;;;;;;;;19.10;99.90;;;;;;5054956;28;20292;-75
2021/07/25 06:01:43;;;;;;;;;;;19.20;99.90;;;;;;5063060;28;19908;-75
2021/07/25 06:04:09;;;;;;;;;;;19.30;99.90;;;;;;5075147;28;19908;-75
2021/07/25 06:06:34;;;;;;;;;;;19.40;99.90;;;;;;5074034;28;20051;-75
2021/07/25 06:09:00;;;;;;;;;;;19.40;99.90;;;;;;5075052;28;20264;-75
2021/07/25 06:11:25;;;;;;;;;;;19.50;99.90;;;;;;5056916;28;19909;-75
2021/07/25 06:13:51;;;;;;;;;;;19.60;99.90;;;;;;5074559;28;20015;-74
2021/07/25 06:16:17;;;;;;;;;;;19.70;99.90;;;;;;5073788;28;19915;-74
2021/07/25 06:18:46;;;;;;;;;;;19.80;99.90;;;;;;5074497;28;19999;-74
2021/07/25 06:21:11;;;;;;;;;;;19.90;99.90;;;;;;5074091;28;20291;-74
2021/07/25 06:23:37;;;;;;;;;;;20.00;99.90;;;;;;5056607;28;19908;-74
2021/07/25 06:26:02;;;;;;;;;;;20.10;99.90;;;;;;5073890;28;19913;-74
2021/07/25 06:28:28;;;;;;;;;;;20.10;99.90;;;;;;5056505;28;19915;-75
2021/07/25 06:30:53;;;;;;;;;;;20.20;99.90;;;;;;5063794;28;19909;-75
2021/07/25 06:33:19;;;;;;;;;;;20.30;99.90;;;;;;5053848;28;19920;-75
2021/07/25 06:35:45;;;;;;;;;;;20.50;99.90;;;;;;5054155;28;20422;-75
2021/07/25 06:38:14;;;;;;;;;;;20.60;99.90;;;;;;5053504;28;19909;-74
2021/07/25 06:40:41;;;;;;;;;;;20.80;99.90;;;;;;5054103;28;19909;-74
2021/07/25 06:43:07;;;;;;;;;;;21.00;99.90;;;;;;5054255;28;19944;-74
2021/07/25 06:45:33;;;;;;;;;;;21.10;99.90;;;;;;5053924;28;19998;-74
2021/07/25 06:47:59;;;;;;;;;;;21.40;99.90;;;;;;5035532;28;19913;-75
2021/07/25 06:50:28;;;;;;;;;;;21.70;99.90;;;;;;5053908;28;19915;-74
2021/07/25 06:52:55;;;;;;;;;;;22.00;99.90;;;;;;5053721;28;19909;-74
2021/07/25 06:55:22;;;;;;;;;;;22.30;99.90;;;;;;5054264;28;19920;-74
2021/07/25 06:57:48;;;;;;;;;;;22.40;99.90;;;;;;5053223;28;20331;-74
2021/07/25 07:00:13;;;;;;;;;;;22.70;99.90;;;;;;5054307;28;19913;-75
2021/07/25 07:02:52;;;;;;;;;;;23.00;99.90;;;;;;5035397;28;19919;-74
2021/07/25 07:05:18;;;;;;;;;;;22.70;99.90;;;;;;5053832;28;19908;-75
2021/07/25 07:07:45;;;;;;;;;;;22.60;99.90;;;;;;5035138;28;19996;-74
2021/07/25 07:10:11;;;;;;;;;;;22.50;99.90;;;;;;5035734;28;20020;-74
2021/07/25 07:12:36;;;;;;;;;;;22.40;99.90;;;;;;5053176;28;20420;-74
2021/07/25 07:15:03;;;;;;;;;;;22.30;99.90;;;;;;5053818;28;19975;-75
2021/07/25 07:17:29;;;;;;;;;;;22.20;99.90;;;;;;5052828;28;19912;-74
2021/07/25 07:19:54;;;;;;;;;;;22.30;99.90;;;;;;5053254;28;20391;-74
2021/07/25 07:22:30;;;;;;;;;;;22.40;99.90;;;;;;5035410;28;19966;-74
2021/07/25 07:24:56;;;;;;;;;;;22.60;99.90;;;;;;5053088;28;20369;-75
2021/07/25 07:27:22;;;;;;;;;;;22.60;99.90;;;;;;5052734;28;19920;-74
2021/07/25 07:29:47;;;;;;;;;;;22.50;99.90;;;;;;5053551;28;19909;-75
2021/07/25 07:32:13;;;;;;;;;;;22.50;99.90;;;;;;5053375;28;20285;-74
2021/07/25 07:34:38;;;;;;;;;;;22.40;99.90;;;;;;5052636;28;19916;-74
2021/07/25 07:37:04;;;;;;;;;;;22.30;99.90;;;;;;5053129;28;19908;-74
2021/07/25 07:39:30;;;;;;;;;;;22.20;99.90;;;;;;5052551;28;20047;-74
2021/07/25 07:41:55;;;;;;;;;;;22.20;99.90;;;;;;5035131;28;20357;-74
2021/07/25 07:44:21;;;;;;;;;;;22.20;99.90;;;;;;5052779;28;19909;-74
2021/07/25 07:46:46;;;;;;;;;;;22.20;99.90;;;;;;5052505;28;19952;-74
2021/07/25 07:49:12;;;;;;;;;;;22.10;99.90;;;;;;5034694;28;19916;-74
2021/07/25 07:51:37;;;;;;;;;;;22.10;99.90;;;;;;5052767;28;19931;-74
2021/07/25 07:54:03;;;;;;;;;;;22.20;99.90;;;;;;5052272;28;19912;-75
2021/07/25 07:56:31;;;;;;;;;;;22.50;99.90;;;;;;5052159;28;20351;-75
2021/07/25 07:58:56;;;;;;;;;;;23.00;99.90;;;;;;5052302;28;19963;-75
2021/07/25 08:01:22;;;;;;;;;;;23.90;99.90;;;;;;5053242;28;19912;-74
2021/07/25 08:03:48;;;;;;;;;;;24.50;99.90;;;;;;5051810;28;19959;-74
2021/07/25 08:06:13;;;;;;;;;;;24.80;99.90;;;;;;5051870;28;19913;-74
2021/07/25 08:08:39;;;;;;;;;;;24.80;99.90;;;;;;5052497;28;19920;-75
2021/07/25 08:11:04;;;;;;;;;;;24.60;99.90;;;;;;5052124;28;19995;-74
2021/07/25 08:13:29;;;;;;;;;;;24.30;99.90;;;;;;5052429;28;19917;-75
2021/07/25 08:15:55;;;;;;;;;;;24.00;99.90;;;;;;5051966;28;19909;-75
2021/07/25 08:18:20;;;;;;;;;;;23.90;99.90;;;;;;5051778;28;19909;-75
2021/07/25 08:20:46;;;;;;;;;;;23.60;99.90;;;;;;5051913;28;19920;-75
2021/07/25 08:23:11;;;;;;;;;;;23.40;99.90;;;;;;5052228;28;20003;-75
2021/07/25 08:25:37;;;;;;;;;;;23.30;99.90;;;;;;5051726;28;19931;-75
2021/07/25 08:28:02;;;;;;;;;;;23.10;99.90;;;;;;5051750;28;19916;-74
2021/07/25 08:30:30;;;;;;;;;;;22.80;99.90;;;;;;5052630;28;19909;-74
2021/07/25 08:32:55;;;;;;;;;;;22.50;99.90;;;;;;5051782;28;19908;-74
2021/07/25 08:35:21;;;;;;;;;;;22.20;99.90;;;;;;5051870;28;20365;-74
2021/07/25 08:37:46;;;;;;;;;;;22.10;99.90;;;;;;5051241;28;19970;-74
2021/07/25 08:40:14;;;;;;;;;;;22.10;99.90;;;;;;5051689;28;19909;-74
2021/07/25 08:42:44;;;;;;;;;;;22.10;99.90;;;;;;5051572;28;20365;-74
2021/07/25 08:45:10;;;;;;;;;;;22.00;99.90;;;;;;5052080;28;20008;-75
2021/07/25 08:47:36;;;;;;;;;;;22.00;99.90;;;;;;5050989;28;20353;-75
2021/07/25 08:50:02;;;;;;;;;;;22.00;99.90;;;;;;5051654;28;19913;-75
2021/07/25 08:52:29;;;;;;;;;;;21.90;99.90;;;;;;5051356;28;20280;-75
2021/07/25 08:54:55;;;;;;;;;;;21.90;99.90;;;;;;5051573;28;20008;-75
2021/07/25 08:57:22;;;;;;;;;;;21.90;99.90;;;;;;5050889;28;19909;-74
2021/07/25 08:59:49;;;;;;;;;;;21.80;99.90;;;;;;5052088;28;19909;-75
2021/07/25 09:02:19;;;;;;;;;;;21.80;99.90;;;;;;5051012;28;19909;-74
2021/07/25 09:04:45;;;;;;;;;;;21.80;99.90;;;;;;5051543;28;19928;-75
2021/07/25 09:07:11;;;;;;;;;;;21.80;99.90;;;;;;5050602;28;19913;-74
2021/07/25 09:09:37;;;;;;;;;;;21.90;99.90;;;;;;5051460;28;20258;-75
2021/07/25 09:12:03;;;;;;;;;;;21.90;99.90;;;;;;5051108;28;19916;-75
2021/07/25 09:14:28;;;;;;;;;;;21.80;99.90;;;;;;5050441;28;19913;-75
2021/07/25 09:16:54;;;;;;;;;;;21.90;99.90;;;;;;5050720;28;19928;-75
2021/07/25 09:19:19;;;;;;;;;;;21.90;99.90;;;;;;5050749;28;19913;-75
2021/07/25 09:21:46;;;;;;;;;;;21.90;99.90;;;;;;5051133;28;20011;-75
2021/07/25 09:24:14;;;;;;;;;;;21.80;99.90;;;;;;5051056;28;19913;-75
2021/07/25 09:26:50;;;;;;;;;;;21.70;99.90;;;;;;5050662;28;19955;-75
2021/07/25 09:29:19;;;;;;;;;;;21.60;99.90;;;;;;5051035;28;19909;-75
2021/07/25 09:31:44;;;;;;;;;;;21.50;99.90;;;;;;5068911;28;19909;-75
2021/07/25 09:34:10;;;;;;;;;;;21.30;99.90;;;;;;5070790;28;19966;-75
2021/07/25 09:36:37;;;;;;;;;;;21.10;99.90;;;;;;5070655;28;19919;-75
2021/07/25 09:39:04;;;;;;;;;;;21.00;99.90;;;;;;5052992;28;20333;-75
2021/07/25 09:41:30;;;;;;;;;;;20.90;99.90;;;;;;5071248;28;20049;-75
2021/07/25 09:44:00;;;;;;;;;;;20.90;99.90;;;;;;5070998;28;20391;-75
2021/07/25 09:46:26;;;;;;;;;;;20.70;99.90;;;;;;5070585;28;19908;-75
2021/07/25 09:48:54;;;;;;;;;;;20.50;99.90;;;;;;5070663;28;19961;-75
2021/07/25 09:51:22;;;;;;;;;;;20.50;99.90;;;;;;5070986;28;19915;-75
2021/07/25 09:53:52;;;;;;;;;;;20.30;99.90;;;;;;5052757;28;20369;-76
2021/07/25 09:56:23;;;;;;;;;;;20.20;99.90;;;;;;5070519;28;19908;-75
2021/07/25 09:58:49;;;;;;;;;;;20.10;99.90;;;;;;5070781;28;19909;-75
2021/07/25 10:01:37;;;;;;;;;;;20.00;99.90;;;;;;5057479;28;19908;-75
2021/07/25 10:04:13;;;;;;;;;;;19.90;99.90;;;;;;5050472;28;19952;-75
2021/07/25 10:06:40;;;;;;;;;;;19.80;99.90;;;;;;5050377;28;19909;-75
2021/07/25 10:09:09;;;;;;;;;;;19.80;99.90;;;;;;5032623;28;19915;-75
2021/07/25 10:11:36;;;;;;;;;;;19.80;99.90;;;;;;5050775;28;19909;-75
2021/07/25 10:14:02;;;;;;;;;;;19.80;99.90;;;;;;5050568;28;20015;-75
2021/07/25 10:16:27;;;;;;;;;;;19.80;99.90;;;;;;5049948;28;19994;-75
2021/07/25 10:18:53;;;;;;;;;;;19.70;99.90;;;;;;5050823;28;19909;-75
2021/07/25 10:21:19;;;;;;;;;;;19.70;99.90;;;;;;5032631;28;19927;-75
2021/07/25 10:23:52;;;;;;;;;;;19.70;99.90;;;;;;5050827;28;19948;-75
2021/07/25 10:26:18;;;;;;;;;;;19.70;99.90;;;;;;5051683;28;19909;-75
2021/07/25 10:28:45;;;;;;;;;;;19.70;99.90;;;;;;5054479;28;19947;-75
2021/07/25 10:31:11;;;;;;;;;;;19.80;99.90;;;;;;5054622;28;20349;-75
2021/07/25 10:33:38;;;;;;;;;;;19.90;99.90;;;;;;5054147;28;19963;-75
2021/07/25 10:36:04;;;;;;;;;;;20.00;99.90;;;;;;5053708;28;19912;-75
2021/07/25 10:38:29;;;;;;;;;;;20.00;99.90;;;;;;5054109;28;19966;-75
2021/07/25 10:40:56;;;;;;;;;;;20.10;99.90;;;;;;5053931;28;19999;-75
2021/07/25 10:43:25;;;;;;;;;;;20.20;99.90;;;;;;5054210;28;20357;-75
2021/07/25 10:46:14;;;;;;;;;;;20.30;99.90;;;;;;5053750;28;19909;-75
2021/07/25 10:49:14;;;;;;;;;;;20.30;99.90;;;;;;5045623;28;19912;-75
2021/07/25 10:51:59;;;;;;;;;;;20.40;99.90;;;;;;4975905;28;20016;-75
2021/07/25 10:54:24;;;;;;;;;;;20.50;99.90;;;;;;5048703;28;20434;-75
2021/07/25 10:57:17;;;;;;;;;;;20.60;99.90;;;;;;5053267;28;19909;-75
2021/07/25 11:00:01;;;;;;;;;;;20.70;99.90;;;;;;5051861;28;20491;-75
2021/07/25 11:02:26;;;;;;;;;;;20.70;99.90;;;;;;5053478;28;19909;-75
2021/07/25 11:04:55;;;;;;;;;;;20.70;99.90;;;;;;5053835;28;19955;-76
2021/07/25 11:07:23;;;;;;;;;;;20.60;99.90;;;;;;5052900;28;19916;-76
2021/07/25 11:09:59;;;;;;;;;;;20.60;99.90;;;;;;5053692;28;19924;-76
2021/07/25 11:12:25;;;;;;;;;;;20.60;99.90;;;;;;5053793;28;20330;-76
2021/07/25 11:15:00;;;;;;;;;;;20.60;99.90;;;;;;5053444;28;19964;-75
2021/07/25 11:17:44;;;;;;;;;;;20.50;99.90;;;;;;5052878;28;19916;-76
2021/07/25 11:20:27;;;;;;;;;;;20.50;99.90;;;;;;5053394;28;19956;-76
2021/07/25 11:22:53;;;;;;;;;;;20.40;99.90;;;;;;5053206;28;19917;-75
2021/07/25 11:25:33;;;;;;;;;;;20.40;99.90;;;;;;5053429;28;19912;-75
2021/07/25 11:27:59;;;;;;;;;;;20.40;99.90;;;;;;5052594;28;19916;-75
2021/07/25 11:30:45;;;;;;;;;;;20.30;99.90;;;;;;5053878;28;19909;-74
2021/07/25 11:33:29;;;;;;;;;;;20.20;99.90;;;;;;5041786;28;20341;-75
2021/07/25 11:35:56;;;;;;;;;;;20.20;99.90;;;;;;5053217;28;19916;-75
2021/07/25 11:38:22;;;;;;;;;;;20.20;99.90;;;;;;5051564;28;19908;-75
2021/07/25 11:40:53;;;;;;;;;;;20.10;99.90;;;;;;5053127;28;20317;-75
2021/07/25 11:43:18;;;;;;;;;;;20.10;99.90;;;;;;5052546;28;19916;-75
2021/07/25 11:45:44;;;;;;;;;;;20.10;99.90;;;;;;5034832;28;20298;-75
2021/07/25 11:48:19;;;;;;;;;;;19.90;99.90;;;;;;5052336;28;19913;-75
2021/07/25 11:50:45;;;;;;;;;;;19.90;99.90;;;;;;5053013;28;20419;-75
2021/07/25 11:53:10;;;;;;;;;;;19.90;99.90;;;;;;5052507;28;19909;-76
2021/07/25 11:55:36;;;;;;;;;;;19.80;99.90;;;;;;5052930;28;19999;-76
2021/07/25 11:58:08;;;;;;;;;;;19.80;99.90;;;;;;5052101;28;20389;-75
2021/07/25 12:00:34;;;;;;;;;;;19.70;99.90;;;;;;5053144;28;19916;-75
2021/07/25 12:02:59;;;;;;;;;;;19.70;99.90;;;;;;5052413;28;19913;-75
2021/07/25 12:05:26;;;;;;;;;;;19.60;99.90;;;;;;5052255;28;19909;-75
2021/07/25 12:07:52;;;;;;;;;;;19.60;99.90;;;;;;5052120;28;19916;-75
2021/07/25 12:10:28;;;;;;;;;;;19.50;99.90;;;;;;5052199;28;20004;-75
2021/07/25 12:13:01;;;;;;;;;;;19.40;99.90;;;;;;5052457;28;20003;-75
2021/07/25 12:15:28;;;;;;;;;;;19.40;99.90;;;;;;5052114;28;20413;-75
2021/07/25 12:17:54;;;;;;;;;;;19.30;99.90;;;;;;5052098;28;20273;-75
2021/07/25 12:20:19;;;;;;;;;;;19.30;99.90;;;;;;5051913;28;19921;-75
2021/07/25 12:22:51;;;;;;;;;;;19.30;99.90;;;;;;5052352;28;20284;-75
2021/07/25 12:25:17;;;;;;;;;;;19.30;99.90;;;;;;5051837;28;19920;-75
2021/07/25 12:27:42;;;;;;;;;;;19.40;99.90;;;;;;5033732;28;19909;-75
2021/07/25 12:30:11;;;;;;;;;;;19.60;99.90;;;;;;5052394;28;20373;-75
2021/07/25 12:32:37;;;;;;;;;;;19.70;99.90;;;;;;5051891;28;19909;-75
2021/07/25 12:35:08;;;;;;;;;;;19.90;99.90;;;;;;5051785;28;19919;-75
2021/07/25 12:37:40;;;;;;;;;;;20.00;99.90;;;;;;5051374;28;19919;-75
2021/07/25 12:40:07;;;;;;;;;;;20.20;99.90;;;;;;5051715;28;19913;-74
2021/07/25 12:42:55;;;;;;;;;;;20.50;99.90;;;;;;5051689;28;20005;-75
2021/07/25 12:45:21;;;;;;;;;;;20.70;99.90;;;;;;5032822;28;20003;-75
2021/07/25 12:47:46;;;;;;;;;;;21.00;99.90;;;;;;5051413;28;19999;-75
2021/07/25 12:50:12;;;;;;;;;;;21.30;99.90;;;;;;5033662;28;19912;-75
2021/07/25 12:52:37;;;;;;;;;;;21.60;99.90;;;;;;5051544;28;19948;-75
2021/07/25 12:55:03;;;;;;;;;;;21.80;99.90;;;;;;5051635;28;20292;-75
2021/07/25 12:57:28;;;;;;;;;;;22.00;99.90;;;;;;5050807;28;19915;-75
2021/07/25 12:59:54;;;;;;;;;;;22.20;99.90;;;;;;5052243;28;19912;-75
2021/07/25 13:05:04;;;;;;;;;;;22.60;99.90;;;;;;5051628;28;19947;-75
2021/07/25 13:07:29;;;;;;;;;;;22.70;99.90;;;;;;5050721;28;20308;-75
2021/07/25 13:09:55;;;;;;;;;;;22.60;99.90;;;;;;5051542;28;19962;-75
2021/07/25 13:12:20;;;;;;;;;;;22.60;99.90;;;;;;5051046;28;19909;-75
2021/07/25 13:14:46;;;;;;;;;;;22.70;99.90;;;;;;5051360;28;20008;-75
2021/07/25 13:17:11;;;;;;;;;;;22.70;99.90;;;;;;5050452;28;20476;-75
2021/07/25 13:19:38;;;;;;;;;;;22.70;99.90;;;;;;5051388;28;19909;-74
2021/07/25 13:22:03;;;;;;;;;;;22.60;99.90;;;;;;5051087;28;19956;-75
2021/07/25 13:24:29;;;;;;;;;;;22.80;99.90;;;;;;5051316;28;19994;-75
2021/07/25 13:26:55;;;;;;;;;;;22.80;99.90;;;;;;5050796;28;19947;-75
2021/07/25 13:29:20;;;;;;;;;;;22.80;99.90;;;;;;5050953;28;19948;-75
2021/07/25 13:31:46;;;;;;;;;;;22.80;99.90;;;;;;5051620;28;20379;-74
2021/07/25 13:34:11;;;;;;;;;;;22.70;99.90;;;;;;5050938;28;19920;-74
2021/07/25 13:36:37;;;;;;;;;;;22.30;99.90;;;;;;5050734;28;20004;-74
2021/07/25 13:39:03;;;;;;;;;;;22.20;99.90;;;;;;5050978;28;19920;-74
2021/07/25 13:41:28;;;;;;;;;;;22.20;99.90;;;;;;5051021;28;19909;-74
2021/07/25 13:43:59;;;;;;;;;;;22.30;99.90;;;;;;5050939;28;20391;-75
2021/07/25 13:46:40;;;;;;;;;;;22.40;99.90;;;;;;5032620;28;19908;-74
2021/07/25 13:49:05;;;;;;;;;;;22.60;99.90;;;;;;5050791;28;19944;-74
2021/07/25 13:51:31;;;;;;;;;;;22.70;99.90;;;;;;5051163;28;19958;-74
2021/07/25 13:53:57;;;;;;;;;;;22.70;99.90;;;;;;5050804;28;19935;-74
2021/07/25 13:56:22;;;;;;;;;;;22.60;99.90;;;;;;5050482;28;20099;-74
2021/07/25 13:58:48;;;;;;;;;;;22.70;99.90;;;;;;5050426;28;19948;-74
2021/07/25 14:01:14;;;;;;;;;;;22.80;99.90;;;;;;5053119;28;20284;-74
2021/07/25 14:03:40;;;;;;;;;;;22.70;99.90;;;;;;5054408;28;19916;-75
2021/07/25 14:06:05;;;;;;;;;;;22.70;99.90;;;;;;5036628;28;19909;-75
2021/07/25 14:08:31;;;;;;;;;;;22.80;99.90;;;;;;5055587;28;19951;-74
2021/07/25 14:10:56;;;;;;;;;;;22.80;99.90;;;;;;5036995;28;20331;-74
2021/07/25 14:13:22;;;;;;;;;;;22.80;99.90;;;;;;5054873;28;19909;-75
2021/07/25 14:15:47;;;;;;;;;;;22.90;99.90;;;;;;5054854;28;19935;-74
2021/07/25 14:18:13;;;;;;;;;;;22.90;99.90;;;;;;5036926;28;20389;-75
2021/07/25 14:20:41;;;;;;;;;;;22.80;99.90;;;;;;5054935;28;20011;-74
2021/07/25 14:23:07;;;;;;;;;;;22.80;99.90;;;;;;5055103;28;19915;-74